sensor_id;sensor_type;location;lat;lon;timestamp;temperature;humidity
15749;DHT22;7976;52.526;13.326;2022-10-19T00:00:03;12.80;99.90
15749;DHT22;7976;52.526;13.326;2022-10-19T00:02:30;12.80;99.90
15749;DHT22;7976;52.526;13.326;2022-10-19T00:04:57;12.80;99.90
15749;DHT22;7976;52.526;13.326;2022-10-19T00:07:24;12.80;99.90
15749;DHT22;7976;52.526;13.326;2022-10-19T00:09:51;12.90;99.90
15749;DHT22;7976;52.526;13.326;2022-10-19T00:12:18;12.80;99.90
15749;DHT22;7976;52.526;13.326;2022-10-19T00:14:46;12.90;99.90
15749;DHT22;7976;52.526;13.326;2022-10-19T00:17:13;12.90;99.90
15749;DHT22;7976;52.526;13.326;2022-10-19T00:19:40;12.90;99.90
15749;DHT22;7976;52.526;13.326;2022-10-19T00:22:06;12.90;99.90
15749;DHT22;7976;52.526;13.326;2022-10-19T00:24:33;12.90;99.90
15749;DHT22;7976;52.526;13.326;2022-10-19T00:27:00;12.90;99.90
15749;DHT22;7976;52.526;13.326;2022-10-19T00:29:27;12.90;99.90
15749;DHT22;7976;52.526;13.326;2022-10-19T00:31:55;12.90;99.90
15749;DHT22;7976;52.526;13.326;2022-10-19T00:34:21;12.80;99.90
15749;DHT22;7976;52.526;13.326;2022-10-19T00:36:48;12.90;99.90
15749;DHT22;7976;52.526;13.326;2022-10-19T00:39:16;12.80;99.90
15749;DHT22;7976;52.526;13.326;2022-10-19T00:41:45;12.80;99.90
15749;DHT22;7976;52.526;13.326;2022-10-19T00:47:27;12.80;99.90
15749;DHT22;7976;52.526;13.326;2022-10-19T00:49:55;12.80;99.90
15749;DHT22;7976;52.526;13.326;2022-10-19T00:52:24;12.80;99.90
15749;DHT22;7976;52.526;13.326;2022-10-19T00:54:53;12.80;99.90
15749;DHT22;7976;52.526;13.326;2022-10-19T00:57:22;12.70;99.90
15749;DHT22;7976;52.526;13.326;2022-10-19T00:59:52;12.70;99.90
15749;DHT22;7976;52.526;13.326;2022-10-19T01:02:20;12.70;99.90
15749;DHT22;7976;52.526;13.326;2022-10-19T01:04:50;12.70;99.90
15749;DHT22;7976;52.526;13.326;2022-10-19T01:07:18;12.70;99.90
15749;DHT22;7976;52.526;13.326;2022-10-19T01:09:45;12.70;99.90
15749;DHT22;7976;52.526;13.326;2022-10-19T01:12:23;12.70;99.90
15749;DHT22;7976;52.526;13.326;2022-10-19T01:15:16;12.70;99.90
15749;DHT22;7976;52.526;13.326;2022-10-19T01:18:00;12.70;99.90
15749;DHT22;7976;52.526;13.326;2022-10-19T01:24:21;12.70;99.90
15749;DHT22;7976;52.526;13.326;2022-10-19T01:30:21;12.70;99.90
15749;DHT22;7976;52.526;13.326;2022-10-19T01:33:17;12.70;99.90
15749;DHT22;7976;52.526;13.326;2022-10-19T01:36:00;12.80;99.90
15749;DHT22;7976;52.526;13.326;2022-10-19T01:38:36;12.70;99.90
15749;DHT22;7976;52.526;13.326;2022-10-19T01:41:14;12.70;99.90
15749;DHT22;7976;52.526;13.326;2022-10-19T01:43:49;12.70;99.90
15749;DHT22;7976;52.526;13.326;2022-10-19T01:46:26;12.70;99.90
15749;DHT22;7976;52.526;13.326;2022-10-19T01:49:04;12.70;99.90
15749;DHT22;7976;52.526;13.326;2022-10-19T01:51:38;12.70;99.90
15749;DHT22;7976;52.526;13.326;2022-10-19T01:54:12;12.70;99.90
15749;DHT22;7976;52.526;13.326;2022-10-19T01:56:44;12.70;99.90
15749;DHT22;7976;52.526;13.326;2022-10-19T01:59:15;12.70;99.90
15749;DHT22;7976;52.526;13.326;2022-10-19T02:01:47;12.60;99.90
15749;DHT22;7976;52.526;13.326;2022-10-19T02:04:19;12.60;99.90
15749;DHT22;7976;52.526;13.326;2022-10-19T02:06:49;12.60;99.90
15749;DHT22;7976;52.526;13.326;2022-10-19T02:09:17;12.60;99.90
15749;DHT22;7976;52.526;13.326;2022-10-19T02:11:46;12.60;99.90
15749;DHT22;7976;52.526;13.326;2022-10-19T02:14:19;12.50;99.90
15749;DHT22;7976;52.526;13.326;2022-10-19T02:16:53;12.50;99.90
15749;DHT22;7976;52.526;13.326;2022-10-19T02:19:23;12.60;99.90
15749;DHT22;7976;52.526;13.326;2022-10-19T02:21:50;12.60;99.90
15749;DHT22;7976;52.526;13.326;2022-10-19T02:24:17;12.60;99.90
15749;DHT22;7976;52.526;13.326;2022-10-19T02:26:44;12.60;99.90
15749;DHT22;7976;52.526;13.326;2022-10-19T02:29:13;12.50;99.90
15749;DHT22;7976;52.526;13.326;2022-10-19T02:31:41;12.50;99.90
15749;DHT22;7976;52.526;13.326;2022-10-19T02:34:11;12.60;99.90
15749;DHT22;7976;52.526;13.326;2022-10-19T02:36:39;12.50;99.90
15749;DHT22;7976;52.526;13.326;2022-10-19T02:39:06;12.60;99.90
15749;DHT22;7976;52.526;13.326;2022-10-19T02:41:37;12.60;99.90
15749;DHT22;7976;52.526;13.326;2022-10-19T02:44:14;12.60;99.90
15749;DHT22;7976;52.526;13.326;2022-10-19T02:46:48;12.50;99.90
15749;DHT22;7976;52.526;13.326;2022-10-19T02:49:20;12.50;99.90
15749;DHT22;7976;52.526;13.326;2022-10-19T02:51:56;12.50;99.90
15749;DHT22;7976;52.526;13.326;2022-10-19T02:54:25;12.50;99.90
15749;DHT22;7976;52.526;13.326;2022-10-19T02:56:52;12.50;99.90
15749;DHT22;7976;52.526;13.326;2022-10-19T02:59:19;12.50;99.90
15749;DHT22;7976;52.526;13.326;2022-10-19T03:01:45;12.50;99.90
15749;DHT22;7976;52.526;13.326;2022-10-19T03:04:12;12.50;99.90
15749;DHT22;7976;52.526;13.326;2022-10-19T03:06:41;12.50;99.90
15749;DHT22;7976;52.526;13.326;2022-10-19T03:09:08;12.50;99.90
15749;DHT22;7976;52.526;13.326;2022-10-19T03:11:35;12.60;99.90
15749;DHT22;7976;52.526;13.326;2022-10-19T03:14:02;12.50;99.90
15749;DHT22;7976;52.526;13.326;2022-10-19T03:16:29;12.50;99.90
15749;DHT22;7976;52.526;13.326;2022-10-19T03:18:56;12.50;99.90
15749;DHT22;7976;52.526;13.326;2022-10-19T03:21:22;12.50;99.90
15749;DHT22;7976;52.526;13.326;2022-10-19T03:23:50;12.50;99.90
15749;DHT22;7976;52.526;13.326;2022-10-19T03:26:17;12.50;99.90
15749;DHT22;7976;52.526;13.326;2022-10-19T03:28:44;12.50;99.90
15749;DHT22;7976;52.526;13.326;2022-10-19T03:31:11;12.50;99.90
15749;DHT22;7976;52.526;13.326;2022-10-19T03:33:38;12.50;99.90
15749;DHT22;7976;52.526;13.326;2022-10-19T03:36:15;12.50;99.90
15749;DHT22;7976;52.526;13.326;2022-10-19T03:38:45;12.50;99.90
15749;DHT22;7976;52.526;13.326;2022-10-19T03:41:14;12.50;99.90
15749;DHT22;7976;52.526;13.326;2022-10-19T03:43:41;12.50;99.90
15749;DHT22;7976;52.526;13.326;2022-10-19T03:46:07;12.40;99.90
15749;DHT22;7976;52.526;13.326;2022-10-19T03:48:35;12.50;99.90
15749;DHT22;7976;52.526;13.326;2022-10-19T03:51:03;12.50;99.90
15749;DHT22;7976;52.526;13.326;2022-10-19T03:53:32;12.50;99.90
15749;DHT22;7976;52.526;13.326;2022-10-19T03:56:01;12.40;99.90
15749;DHT22;7976;52.526;13.326;2022-10-19T03:58:33;12.40;99.90
15749;DHT22;7976;52.526;13.326;2022-10-19T04:01:06;12.40;99.90
15749;DHT22;7976;52.526;13.326;2022-10-19T04:03:35;12.50;99.90
15749;DHT22;7976;52.526;13.326;2022-10-19T04:06:02;12.40;99.90
15749;DHT22;7976;52.526;13.326;2022-10-19T04:08:31;12.40;99.90
15749;DHT22;7976;52.526;13.326;2022-10-19T04:10:59;12.40;99.90
15749;DHT22;7976;52.526;13.326;2022-10-19T04:13:27;12.40;99.90
15749;DHT22;7976;52.526;13.326;2022-10-19T04:15:55;12.40;99.90
15749;DHT22;7976;52.526;13.326;2022-10-19T04:18:22;12.40;99.90
15749;DHT22;7976;52.526;13.326;2022-10-19T04:20:54;12.40;99.90
15749;DHT22;7976;52.526;13.326;2022-10-19T04:23:22;12.40;99.90
15749;DHT22;7976;52.526;13.326;2022-10-19T04:25:49;12.40;99.90
15749;DHT22;7976;52.526;13.326;2022-10-19T04:28:16;12.40;99.90
15749;DHT22;7976;52.526;13.326;2022-10-19T04:30:43;12.40;99.90
15749;DHT22;7976;52.526;13.326;2022-10-19T04:33:11;12.40;99.90
15749;DHT22;7976;52.526;13.326;2022-10-19T04:35:38;12.40;99.90
15749;DHT22;7976;52.526;13.326;2022-10-19T04:38:05;12.40;99.90
15749;DHT22;7976;52.526;13.326;2022-10-19T04:40:34;12.40;99.90
15749;DHT22;7976;52.526;13.326;2022-10-19T04:43:02;12.40;99.90
15749;DHT22;7976;52.526;13.326;2022-10-19T04:45:29;12.40;99.90
15749;DHT22;7976;52.526;13.326;2022-10-19T04:47:56;12.40;99.90
15749;DHT22;7976;52.526;13.326;2022-10-19T04:50:24;12.40;99.90
15749;DHT22;7976;52.526;13.326;2022-10-19T04:52:54;12.40;99.90
15749;DHT22;7976;52.526;13.326;2022-10-19T04:55:21;12.40;99.90
15749;DHT22;7976;52.526;13.326;2022-10-19T04:57:48;12.40;99.90
15749;DHT22;7976;52.526;13.326;2022-10-19T05:00:15;12.30;99.90
15749;DHT22;7976;52.526;13.326;2022-10-19T05:02:42;12.40;99.90
15749;DHT22;7976;52.526;13.326;2022-10-19T05:05:10;12.40;99.90
15749;DHT22;7976;52.526;13.326;2022-10-19T05:07:39;12.30;99.90
15749;DHT22;7976;52.526;13.326;2022-10-19T05:10:08;12.30;99.90
15749;DHT22;7976;52.526;13.326;2022-10-19T05:12:36;12.30;99.90
15749;DHT22;7976;52.526;13.326;2022-10-19T05:15:03;12.30;99.90
15749;DHT22;7976;52.526;13.326;2022-10-19T05:17:30;12.30;99.90
15749;DHT22;7976;52.526;13.326;2022-10-19T05:19:57;12.30;99.90
15749;DHT22;7976;52.526;13.326;2022-10-19T05:22:24;12.30;99.90
15749;DHT22;7976;52.526;13.326;2022-10-19T05:24:52;12.30;99.90
15749;DHT22;7976;52.526;13.326;2022-10-19T05:27:19;12.30;99.90
15749;DHT22;7976;52.526;13.326;2022-10-19T05:29:46;12.20;99.90
15749;DHT22;7976;52.526;13.326;2022-10-19T05:32:13;12.20;99.90
15749;DHT22;7976;52.526;13.326;2022-10-19T05:34:40;12.20;99.90
15749;DHT22;7976;52.526;13.326;2022-10-19T05:37:07;12.20;99.90
15749;DHT22;7976;52.526;13.326;2022-10-19T05:39:34;12.10;99.90
15749;DHT22;7976;52.526;13.326;2022-10-19T05:42:02;12.10;99.90
15749;DHT22;7976;52.526;13.326;2022-10-19T05:44:29;12.10;99.90
15749;DHT22;7976;52.526;13.326;2022-10-19T05:46:56;12.10;99.90
15749;DHT22;7976;52.526;13.326;2022-10-19T05:49:23;12.10;99.90
15749;DHT22;7976;52.526;13.326;2022-10-19T05:51:50;12.10;99.90
15749;DHT22;7976;52.526;13.326;2022-10-19T05:54:17;12.10;99.90
15749;DHT22;7976;52.526;13.326;2022-10-19T05:56:45;12.10;99.90
15749;DHT22;7976;52.526;13.326;2022-10-19T05:59:16;12.10;99.90
15749;DHT22;7976;52.526;13.326;2022-10-19T06:01:46;12.10;99.90
15749;DHT22;7976;52.526;13.326;2022-10-19T06:04:13;12.20;99.90
15749;DHT22;7976;52.526;13.326;2022-10-19T06:06:41;12.20;99.90
15749;DHT22;7976;52.526;13.326;2022-10-19T06:09:09;12.20;99.90
15749;DHT22;7976;52.526;13.326;2022-10-19T06:11:38;12.20;99.90
15749;DHT22;7976;52.526;13.326;2022-10-19T06:14:10;12.20;99.90
15749;DHT22;7976;52.526;13.326;2022-10-19T06:16:40;12.30;99.90
15749;DHT22;7976;52.526;13.326;2022-10-19T06:19:10;12.30;99.90
15749;DHT22;7976;52.526;13.326;2022-10-19T06:21:36;12.20;99.90
15749;DHT22;7976;52.526;13.326;2022-10-19T06:24:04;12.30;99.90
15749;DHT22;7976;52.526;13.326;2022-10-19T06:26:33;12.30;99.90
15749;DHT22;7976;52.526;13.326;2022-10-19T06:29:02;12.30;99.90
15749;DHT22;7976;52.526;13.326;2022-10-19T06:31:30;12.30;99.90
15749;DHT22;7976;52.526;13.326;2022-10-19T06:34:00;12.30;99.90
15749;DHT22;7976;52.526;13.326;2022-10-19T06:36:29;12.30;99.90
15749;DHT22;7976;52.526;13.326;2022-10-19T06:38:56;12.30;99.90
15749;DHT22;7976;52.526;13.326;2022-10-19T06:41:24;12.30;99.90
15749;DHT22;7976;52.526;13.326;2022-10-19T06:43:52;12.40;99.90
15749;DHT22;7976;52.526;13.326;2022-10-19T06:46:23;12.30;99.90
15749;DHT22;7976;52.526;13.326;2022-10-19T06:48:53;12.40;99.90
15749;DHT22;7976;52.526;13.326;2022-10-19T06:51:26;12.40;99.90
15749;DHT22;7976;52.526;13.326;2022-10-19T06:53:55;12.40;99.90
15749;DHT22;7976;52.526;13.326;2022-10-19T06:56:23;12.40;99.90
15749;DHT22;7976;52.526;13.326;2022-10-19T06:58:50;12.40;99.90
15749;DHT22;7976;52.526;13.326;2022-10-19T07:01:18;12.50;99.90
15749;DHT22;7976;52.526;13.326;2022-10-19T07:03:45;12.50;99.90
15749;DHT22;7976;52.526;13.326;2022-10-19T07:06:13;12.50;99.90
15749;DHT22;7976;52.526;13.326;2022-10-19T07:08:43;12.50;99.90
15749;DHT22;7976;52.526;13.326;2022-10-19T07:11:13;12.60;99.90
15749;DHT22;7976;52.526;13.326;2022-10-19T07:13:42;12.60;99.90
15749;DHT22;7976;52.526;13.326;2022-10-19T07:16:12;12.60;99.90
15749;DHT22;7976;52.526;13.326;2022-10-19T07:18:40;12.60;99.90
15749;DHT22;7976;52.526;13.326;2022-10-19T07:21:09;12.60;99.90
15749;DHT22;7976;52.526;13.326;2022-10-19T07:23:40;12.70;99.90
15749;DHT22;7976;52.526;13.326;2022-10-19T07:26:11;12.70;99.90
15749;DHT22;7976;52.526;13.326;2022-10-19T07:28:42;12.70;99.90
15749;DHT22;7976;52.526;13.326;2022-10-19T07:31:12;12.70;99.90
15749;DHT22;7976;52.526;13.326;2022-10-19T07:33:42;12.70;99.90
15749;DHT22;7976;52.526;13.326;2022-10-19T07:36:10;12.70;99.90
15749;DHT22;7976;52.526;13.326;2022-10-19T07:38:38;12.80;99.90
15749;DHT22;7976;52.526;13.326;2022-10-19T07:41:09;12.70;99.90
15749;DHT22;7976;52.526;13.326;2022-10-19T07:43:37;12.70;99.90
15749;DHT22;7976;52.526;13.326;2022-10-19T07:46:07;12.70;99.90
15749;DHT22;7976;52.526;13.326;2022-10-19T07:48:36;12.70;99.90
15749;DHT22;7976;52.526;13.326;2022-10-19T07:51:05;12.80;99.90
15749;DHT22;7976;52.526;13.326;2022-10-19T07:53:34;12.90;99.90
15749;DHT22;7976;52.526;13.326;2022-10-19T07:56:06;12.90;99.90
15749;DHT22;7976;52.526;13.326;2022-10-19T07:58:36;13.00;99.90
15749;DHT22;7976;52.526;13.326;2022-10-19T08:01:06;13.00;99.90
15749;DHT22;7976;52.526;13.326;2022-10-19T08:03:35;13.00;99.90
15749;DHT22;7976;52.526;13.326;2022-10-19T08:06:03;13.00;99.90
15749;DHT22;7976;52.526;13.326;2022-10-19T08:08:32;13.00;99.90
15749;DHT22;7976;52.526;13.326;2022-10-19T08:11:05;13.00;99.90
15749;DHT22;7976;52.526;13.326;2022-10-19T08:13:34;13.00;99.90
15749;DHT22;7976;52.526;13.326;2022-10-19T08:16:02;13.00;99.90
15749;DHT22;7976;52.526;13.326;2022-10-19T08:18:29;13.00;99.90
15749;DHT22;7976;52.526;13.326;2022-10-19T08:20:56;13.00;99.90
15749;DHT22;7976;52.526;13.326;2022-10-19T08:23:23;13.00;99.90
15749;DHT22;7976;52.526;13.326;2022-10-19T08:25:56;13.10;99.90
15749;DHT22;7976;52.526;13.326;2022-10-19T08:28:23;13.10;99.90
15749;DHT22;7976;52.526;13.326;2022-10-19T08:30:51;13.10;99.90
15749;DHT22;7976;52.526;13.326;2022-10-19T08:33:22;13.20;99.90
15749;DHT22;7976;52.526;13.326;2022-10-19T08:35:49;13.20;99.90
15749;DHT22;7976;52.526;13.326;2022-10-19T08:38:16;13.20;99.90
15749;DHT22;7976;52.526;13.326;2022-10-19T08:40:44;13.20;99.90
15749;DHT22;7976;52.526;13.326;2022-10-19T08:43:15;13.20;99.90
15749;DHT22;7976;52.526;13.326;2022-10-19T08:45:57;13.30;99.90
15749;DHT22;7976;52.526;13.326;2022-10-19T08:48:34;13.30;99.90
15749;DHT22;7976;52.526;13.326;2022-10-19T08:51:04;13.30;99.90
15749;DHT22;7976;52.526;13.326;2022-10-19T08:53:38;13.40;99.90
15749;DHT22;7976;52.526;13.326;2022-10-19T08:56:20;13.50;99.90
15749;DHT22;7976;52.526;13.326;2022-10-19T08:59:11;13.50;99.90
15749;DHT22;7976;52.526;13.326;2022-10-19T09:01:51;13.50;99.90
15749;DHT22;7976;52.526;13.326;2022-10-19T09:04:24;13.50;99.90
15749;DHT22;7976;52.526;13.326;2022-10-19T09:07:02;13.60;99.90
15749;DHT22;7976;52.526;13.326;2022-10-19T09:09:48;13.70;99.90
15749;DHT22;7976;52.526;13.326;2022-10-19T09:12:31;13.60;99.90
15749;DHT22;7976;52.526;13.326;2022-10-19T09:15:06;13.70;99.90
15749;DHT22;7976;52.526;13.326;2022-10-19T09:17:39;13.70;99.90
15749;DHT22;7976;52.526;13.326;2022-10-19T09:20:15;13.70;99.90
15749;DHT22;7976;52.526;13.326;2022-10-19T09:22:45;13.70;99.90
15749;DHT22;7976;52.526;13.326;2022-10-19T09:25:21;13.80;99.90
15749;DHT22;7976;52.526;13.326;2022-10-19T09:27:59;13.80;99.90
15749;DHT22;7976;52.526;13.326;2022-10-19T09:30:36;13.80;99.90
15749;DHT22;7976;52.526;13.326;2022-10-19T09:33:13;13.80;99.90
15749;DHT22;7976;52.526;13.326;2022-10-19T09:35:44;13.80;99.90
15749;DHT22;7976;52.526;13.326;2022-10-19T09:38:14;13.80;99.90
15749;DHT22;7976;52.526;13.326;2022-10-19T09:40:42;13.90;99.90
15749;DHT22;7976;52.526;13.326;2022-10-19T09:43:10;13.90;99.90
15749;DHT22;7976;52.526;13.326;2022-10-19T09:45:49;13.90;99.90
15749;DHT22;7976;52.526;13.326;2022-10-19T09:48:26;13.80;99.90
15749;DHT22;7976;52.526;13.326;2022-10-19T09:50:58;13.80;99.90
15749;DHT22;7976;52.526;13.326;2022-10-19T09:53:26;13.90;99.90
15749;DHT22;7976;52.526;13.326;2022-10-19T09:55:58;13.90;99.90
15749;DHT22;7976;52.526;13.326;2022-10-19T09:58:29;14.00;99.90
15749;DHT22;7976;52.526;13.326;2022-10-19T10:00:57;14.00;99.90
15749;DHT22;7976;52.526;13.326;2022-10-19T10:03:28;14.00;99.90
15749;DHT22;7976;52.526;13.326;2022-10-19T10:05:57;14.00;99.90
15749;DHT22;7976;52.526;13.326;2022-10-19T10:08:26;13.90;99.90
15749;DHT22;7976;52.526;13.326;2022-10-19T10:11:04;13.90;99.90
15749;DHT22;7976;52.526;13.326;2022-10-19T10:13:36;13.90;99.90
15749;DHT22;7976;52.526;13.326;2022-10-19T10:16:07;13.90;99.90
15749;DHT22;7976;52.526;13.326;2022-10-19T10:18:48;14.00;99.90
15749;DHT22;7976;52.526;13.326;2022-10-19T10:21:20;14.10;99.90
15749;DHT22;7976;52.526;13.326;2022-10-19T10:23:59;14.10;99.90
15749;DHT22;7976;52.526;13.326;2022-10-19T10:26:27;14.10;99.90
15749;DHT22;7976;52.526;13.326;2022-10-19T10:28:54;14.10;99.90
15749;DHT22;7976;52.526;13.326;2022-10-19T10:31:23;14.00;99.90
15749;DHT22;7976;52.526;13.326;2022-10-19T10:33:55;14.00;99.90
15749;DHT22;7976;52.526;13.326;2022-10-19T10:36:27;14.10;99.90
15749;DHT22;7976;52.526;13.326;2022-10-19T10:39:00;14.20;99.90
15749;DHT22;7976;52.526;13.326;2022-10-19T10:41:38;14.20;99.90
15749;DHT22;7976;52.526;13.326;2022-10-19T10:44:17;14.20;99.90
15749;DHT22;7976;52.526;13.326;2022-10-19T10:46:51;14.10;99.90
15749;DHT22;7976;52.526;13.326;2022-10-19T10:49:24;14.20;99.90
15749;DHT22;7976;52.526;13.326;2022-10-19T10:51:56;14.30;99.90
15749;DHT22;7976;52.526;13.326;2022-10-19T10:54:31;14.40;99.90
15749;DHT22;7976;52.526;13.326;2022-10-19T10:57:04;14.40;99.90
15749;DHT22;7976;52.526;13.326;2022-10-19T10:59:42;14.30;99.90
15749;DHT22;7976;52.526;13.326;2022-10-19T11:02:23;14.20;99.90
15749;DHT22;7976;52.526;13.326;2022-10-19T11:05:00;14.10;99.90
15749;DHT22;7976;52.526;13.326;2022-10-19T11:07:32;14.20;99.90
15749;DHT22;7976;52.526;13.326;2022-10-19T11:10:04;14.30;99.90
15749;DHT22;7976;52.526;13.326;2022-10-19T11:12:44;14.60;99.90
15749;DHT22;7976;52.526;13.326;2022-10-19T11:15:19;14.80;99.90
15749;DHT22;7976;52.526;13.326;2022-10-19T11:17:57;15.00;99.90
15749;DHT22;7976;52.526;13.326;2022-10-19T11:20:35;15.10;99.90
15749;DHT22;7976;52.526;13.326;2022-10-19T11:23:14;15.20;99.90
15749;DHT22;7976;52.526;13.326;2022-10-19T11:25:54;15.20;99.90
15749;DHT22;7976;52.526;13.326;2022-10-19T11:28:42;15.10;99.90
15749;DHT22;7976;52.526;13.326;2022-10-19T11:31:21;15.00;99.90
15749;DHT22;7976;52.526;13.326;2022-10-19T11:34:06;14.80;99.90
15749;DHT22;7976;52.526;13.326;2022-10-19T11:36:51;14.80;99.90
15749;DHT22;7976;52.526;13.326;2022-10-19T11:39:34;14.70;99.90
15749;DHT22;7976;52.526;13.326;2022-10-19T11:42:18;14.80;99.90
15749;DHT22;7976;52.526;13.326;2022-10-19T11:44:59;14.80;99.90
15749;DHT22;7976;52.526;13.326;2022-10-19T11:47:51;14.80;99.90
15749;DHT22;7976;52.526;13.326;2022-10-19T11:50:34;14.80;99.90
15749;DHT22;7976;52.526;13.326;2022-10-19T11:53:17;14.80;99.90
15749;DHT22;7976;52.526;13.326;2022-10-19T11:56:01;14.80;99.90
15749;DHT22;7976;52.526;13.326;2022-10-19T11:58:42;14.90;99.90
15749;DHT22;7976;52.526;13.326;2022-10-19T12:01:36;14.90;99.90
15749;DHT22;7976;52.526;13.326;2022-10-19T12:04:30;15.00;99.90
15749;DHT22;7976;52.526;13.326;2022-10-19T12:07:33;15.00;99.90
15749;DHT22;7976;52.526;13.326;2022-10-19T12:10:19;15.00;99.90
15749;DHT22;7976;52.526;13.326;2022-10-19T12:12:55;15.10;99.90
15749;DHT22;7976;52.526;13.326;2022-10-19T12:15:29;15.10;99.90
15749;DHT22;7976;52.526;13.326;2022-10-19T12:18:03;15.10;99.90
15749;DHT22;7976;52.526;13.326;2022-10-19T12:20:42;15.10;99.90
15749;DHT22;7976;52.526;13.326;2022-10-19T12:23:24;15.10;99.90
15749;DHT22;7976;52.526;13.326;2022-10-19T12:25:59;14.90;99.90
15749;DHT22;7976;52.526;13.326;2022-10-19T12:28:30;14.80;99.90
15749;DHT22;7976;52.526;13.326;2022-10-19T12:31:00;14.70;99.90
15749;DHT22;7976;52.526;13.326;2022-10-19T12:33:32;14.60;99.90
15749;DHT22;7976;52.526;13.326;2022-10-19T12:36:26;14.50;99.90
15749;DHT22;7976;52.526;13.326;2022-10-19T12:39:10;14.40;99.90
15749;DHT22;7976;52.526;13.326;2022-10-19T12:41:47;14.50;99.90
15749;DHT22;7976;52.526;13.326;2022-10-19T12:44:33;14.70;99.90
15749;DHT22;7976;52.526;13.326;2022-10-19T12:47:20;14.80;99.90
15749;DHT22;7976;52.526;13.326;2022-10-19T12:49:49;15.00;99.90
15749;DHT22;7976;52.526;13.326;2022-10-19T12:52:35;15.00;99.90
15749;DHT22;7976;52.526;13.326;2022-10-19T12:55:27;15.20;99.90
15749;DHT22;7976;52.526;13.326;2022-10-19T12:58:05;15.20;99.90
15749;DHT22;7976;52.526;13.326;2022-10-19T13:00:56;15.10;99.90
15749;DHT22;7976;52.526;13.326;2022-10-19T13:03:28;15.00;99.90
15749;DHT22;7976;52.526;13.326;2022-10-19T13:06:05;14.90;99.90
15749;DHT22;7976;52.526;13.326;2022-10-19T13:08:41;14.90;99.90
15749;DHT22;7976;52.526;13.326;2022-10-19T13:11:14;14.70;99.90
15749;DHT22;7976;52.526;13.326;2022-10-19T13:14:46;14.60;99.90
15749;DHT22;7976;52.526;13.326;2022-10-19T13:17:38;14.50;99.90
15749;DHT22;7976;52.526;13.326;2022-10-19T13:23:37;14.40;99.90
15749;DHT22;7976;52.526;13.326;2022-10-19T13:26:28;14.40;99.90
15749;DHT22;7976;52.526;13.326;2022-10-19T13:29:01;14.40;99.90
15749;DHT22;7976;52.526;13.326;2022-10-19T13:31:29;14.40;99.90
15749;DHT22;7976;52.526;13.326;2022-10-19T13:34:09;14.40;99.90
15749;DHT22;7976;52.526;13.326;2022-10-19T13:36:37;14.40;99.90
15749;DHT22;7976;52.526;13.326;2022-10-19T13:39:12;14.40;99.90
15749;DHT22;7976;52.526;13.326;2022-10-19T13:41:51;14.40;99.90
15749;DHT22;7976;52.526;13.326;2022-10-19T13:44:28;14.40;99.90
15749;DHT22;7976;52.526;13.326;2022-10-19T13:47:17;14.40;99.90
15749;DHT22;7976;52.526;13.326;2022-10-19T13:56:31;14.40;99.90
15749;DHT22;7976;52.526;13.326;2022-10-19T13:59:31;14.40;99.90
15749;DHT22;7976;52.526;13.326;2022-10-19T14:02:55;14.40;99.90
15749;DHT22;7976;52.526;13.326;2022-10-19T14:05:57;14.40;99.90
15749;DHT22;7976;52.526;13.326;2022-10-19T14:11:47;14.50;99.90
15749;DHT22;7976;52.526;13.326;2022-10-19T14:14:20;14.50;99.90
15749;DHT22;7976;52.526;13.326;2022-10-19T14:16:52;14.40;99.90
15749;DHT22;7976;52.526;13.326;2022-10-19T14:19:27;14.40;99.90
15749;DHT22;7976;52.526;13.326;2022-10-19T14:21:58;14.30;99.90
15749;DHT22;7976;52.526;13.326;2022-10-19T14:24:30;14.30;99.90
15749;DHT22;7976;52.526;13.326;2022-10-19T14:27:00;14.20;99.90
15749;DHT22;7976;52.526;13.326;2022-10-19T14:29:41;14.10;99.90
15749;DHT22;7976;52.526;13.326;2022-10-19T14:32:46;14.10;99.90
15749;DHT22;7976;52.526;13.326;2022-10-19T14:35:19;14.10;99.90
15749;DHT22;7976;52.526;13.326;2022-10-19T14:37:55;14.10;99.90
15749;DHT22;7976;52.526;13.326;2022-10-19T14:40:28;14.10;99.90
15749;DHT22;7976;52.526;13.326;2022-10-19T14:42:57;14.10;99.90
15749;DHT22;7976;52.526;13.326;2022-10-19T14:45:27;14.00;99.90
15749;DHT22;7976;52.526;13.326;2022-10-19T14:47:58;14.00;99.90
15749;DHT22;7976;52.526;13.326;2022-10-19T14:50:37;14.00;99.90
15749;DHT22;7976;52.526;13.326;2022-10-19T14:53:30;13.90;99.90
15749;DHT22;7976;52.526;13.326;2022-10-19T14:56:03;13.90;99.90
15749;DHT22;7976;52.526;13.326;2022-10-19T14:58:38;13.90;99.90
15749;DHT22;7976;52.526;13.326;2022-10-19T15:01:10;13.90;99.90
15749;DHT22;7976;52.526;13.326;2022-10-19T15:03:40;13.90;99.90
15749;DHT22;7976;52.526;13.326;2022-10-19T15:06:16;13.90;99.90
15749;DHT22;7976;52.526;13.326;2022-10-19T15:08:50;13.90;99.90
15749;DHT22;7976;52.526;13.326;2022-10-19T15:11:23;13.80;99.90
15749;DHT22;7976;52.526;13.326;2022-10-19T15:14:00;13.90;99.90
15749;DHT22;7976;52.526;13.326;2022-10-19T15:16:39;13.90;99.90
15749;DHT22;7976;52.526;13.326;2022-10-19T15:19:18;13.80;99.90
15749;DHT22;7976;52.526;13.326;2022-10-19T15:22:16;13.80;99.90
15749;DHT22;7976;52.526;13.326;2022-10-19T15:24:58;13.80;99.90
15749;DHT22;7976;52.526;13.326;2022-10-19T15:27:34;13.80;99.90
15749;DHT22;7976;52.526;13.326;2022-10-19T15:30:23;13.80;99.90
15749;DHT22;7976;52.526;13.326;2022-10-19T15:33:07;13.80;99.90
15749;DHT22;7976;52.526;13.326;2022-10-19T15:35:39;13.80;99.90
15749;DHT22;7976;52.526;13.326;2022-10-19T15:38:17;13.70;99.90
15749;DHT22;7976;52.526;13.326;2022-10-19T15:40:55;13.70;99.90
15749;DHT22;7976;52.526;13.326;2022-10-19T15:43:48;13.70;99.90
15749;DHT22;7976;52.526;13.326;2022-10-19T15:46:24;13.70;99.90
15749;DHT22;7976;52.526;13.326;2022-10-19T15:48:56;13.70;99.90
15749;DHT22;7976;52.526;13.326;2022-10-19T15:51:44;13.60;99.90
15749;DHT22;7976;52.526;13.326;2022-10-19T15:54:13;13.60;99.90
15749;DHT22;7976;52.526;13.326;2022-10-19T15:56:45;13.60;99.90
15749;DHT22;7976;52.526;13.326;2022-10-19T15:59:14;13.60;99.90
15749;DHT22;7976;52.526;13.326;2022-10-19T16:01:43;13.50;99.90
15749;DHT22;7976;52.526;13.326;2022-10-19T16:04:13;13.50;99.90
15749;DHT22;7976;52.526;13.326;2022-10-19T16:06:41;13.50;99.90
15749;DHT22;7976;52.526;13.326;2022-10-19T16:09:17;13.40;99.90
15749;DHT22;7976;52.526;13.326;2022-10-19T16:11:47;13.40;99.90
15749;DHT22;7976;52.526;13.326;2022-10-19T16:14:14;13.40;99.90
15749;DHT22;7976;52.526;13.326;2022-10-19T16:16:41;13.40;99.90
15749;DHT22;7976;52.526;13.326;2022-10-19T16:19:09;13.40;99.90
15749;DHT22;7976;52.526;13.326;2022-10-19T16:21:36;13.40;99.90
15749;DHT22;7976;52.526;13.326;2022-10-19T16:24:04;13.30;99.90
15749;DHT22;7976;52.526;13.326;2022-10-19T16:26:31;13.30;99.90
15749;DHT22;7976;52.526;13.326;2022-10-19T16:29:00;13.20;99.90